Annahilt, United Kingdom
Current Conditions -  °F | °C
As of 2:20 PM on Monday 26 Jan 2015 (Local Time) from EGAC Reporting Station
Rain Showers Rain Showers  
Wind Chill: 38°   Ceiling: Unl
Heat Index: 45°   Visibility: 6mi
Dew Point: 37°   Wind: 13mph
Humidity: 76%   Direction: 270°W
Pressure: 30.24"   Gusts: NA
Location:  54.43°N, 6°W
Report Text: EGAC 261420Z 27011KT 240V310 9999 9000W -SHRA FEW013 SCT030 07/03 Q1024
Loading
Personal Weather Stations






























Interactive Weather Map New forecast layout! Learn more

10-Day Weather Forecast

Advertisements
Track Severe Weather on mobile